Terminal Aerodrome Forecast
Issued by NWS Pocatello, ID

Home | Current Version | Previous Version | Text Only | Print | Product List | Glossary On
Versions: 1 2 3 4 5 6 7 8 9 10 11 12 13 14
306
FTUS45 KPIH 221731
TAFBYI
TAF
KBYI 221731Z 2218/2318 05008KT P6SM VCTS SCT050CB SCT140
     FM222100 VRB10KT P6SM -SHRA VCTS BKN060CB BKN120
      TEMPO 2221/2223 VRB15G30KT 6SM -TSRA BKN040CB OVC100
     FM230000 VRB04KT P6SM -SHRA VCTS BKN070CB BKN120 BKN180
     FM230600 VRB04KT P6SM VCSH SCT080 SCT160
     FM230900 07006KT P6SM BKN090 BKN160=

USA.gov is the U.S. government's official web portal to all federal, state and local government web resources and services.